Time;durP1;ratioP1;P1;durP2;ratioP2;P2;SDS_P1;SDS_P2;PMS_P1;PMS_P2;Temp;Humidity;BMP_temperature;BMP_pressure;BME280_temperature;BME280_humidity;BME280_pressure;Samples;Min_cycle;Max_cycle;Signal;HPM_P1;HPM_P2
2023/08/13 00:00:02;;;;;;;10.23;2.65;;;;;;;;;;5150766;27;20507;-78
2023/08/13 00:02:28;;;;;;;9.38;2.55;;;;;;;;;;5150281;27;20081;-78
2023/08/13 00:04:54;;;;;;;12.65;2.92;;;;;;;;;;5152702;27;20050;-78
2023/08/13 00:07:20;;;;;;;11.55;4.13;;;;;;;;;;5152234;27;20049;-79
2023/08/13 00:09:46;;;;;;;16.80;2.70;;;;;;;;;;5154247;27;20026;-77
2023/08/13 00:12:12;;;;;;;11.10;3.83;;;;;;;;;;5155480;27;20018;-77
2023/08/13 00:14:38;;;;;;;8.90;2.65;;;;;;;;;;5153398;27;20031;-77
2023/08/13 00:17:04;;;;;;;13.70;3.05;;;;;;;;;;5151756;27;20129;-77
2023/08/13 00:19:30;;;;;;;9.60;3.00;;;;;;;;;;5151103;27;20027;-76
2023/08/13 00:21:56;;;;;;;14.15;3.38;;;;;;;;;;5149796;27;20034;-77
2023/08/13 00:24:22;;;;;;;9.32;2.63;;;;;;;;;;5151420;27;20068;-78
2023/08/13 00:26:48;;;;;;;9.77;2.38;;;;;;;;;;5150770;27;20027;-78
2023/08/13 00:29:14;;;;;;;11.05;2.65;;;;;;;;;;5151102;27;20080;-77
2023/08/13 00:31:40;;;;;;;7.55;2.35;;;;;;;;;;5150942;27;20463;-78
2023/08/13 00:34:06;;;;;;;6.90;1.90;;;;;;;;;;5150936;27;20094;-78
2023/08/13 00:36:32;;;;;;;10.30;2.35;;;;;;;;;;5149415;27;20029;-78
2023/08/13 00:38:58;;;;;;;10.80;3.13;;;;;;;;;;5151853;27;20075;-76
2023/08/13 00:41:24;;;;;;;10.27;2.58;;;;;;;;;;5151210;27;20042;-77
2023/08/13 00:43:50;;;;;;;9.65;3.05;;;;;;;;;;5151271;27;20107;-78
2023/08/13 00:46:16;;;;;;;13.18;3.13;;;;;;;;;;5151676;27;20023;-78
2023/08/13 00:48:43;;;;;;;10.55;2.78;;;;;;;;;;5151510;27;20098;-78
2023/08/13 00:51:10;;;;;;;8.70;2.67;;;;;;;;;;5151113;27;20723;-78
2023/08/13 00:53:46;;;;;;;7.30;2.03;;;;;;;;;;5150628;27;20034;-79
2023/08/13 00:56:13;;;;;;;9.73;2.50;;;;;;;;;;5149164;27;20023;-79
2023/08/13 00:58:40;;;;;;;12.55;3.28;;;;;;;;;;5150429;27;20170;-79
2023/08/13 01:01:07;;;;;;;11.27;3.00;;;;;;;;;;5150946;27;20027;-79
2023/08/13 01:03:33;;;;;;;9.93;2.30;;;;;;;;;;5156876;27;20078;-78
2023/08/13 01:06:04;;;;;;;7.72;2.33;;;;;;;;;;5157691;27;20396;-78
2023/08/13 01:08:35;;;;;;;13.32;3.50;;;;;;;;;;5150407;27;20211;-79
2023/08/13 01:11:08;;;;;;;12.82;3.47;;;;;;;;;;5150410;27;20019;-78
2023/08/13 01:13:38;;;;;;;10.55;2.85;;;;;;;;;;5149219;27;20027;-77
2023/08/13 01:16:04;;;;;;;;;;;;;;;;;;5151106;27;20027;-76
2023/08/13 01:18:30;;;;;;;9.98;2.63;;;;;;;;;;5150887;27;19936;-78
2023/08/13 01:20:56;;;;;;;12.73;2.85;;;;;;;;;;5150511;27;20019;-78
2023/08/13 01:23:22;;;;;;;9.05;3.30;;;;;;;;;;5150733;27;20095;-78
2023/08/13 01:25:52;;;;;;;9.02;2.42;;;;;;;;;;5150077;27;21005;-80
2023/08/13 01:28:34;;;;;;;11.55;3.22;;;;;;;;;;5148622;27;20027;-77
2023/08/13 01:31:08;;;;;;;8.93;2.63;;;;;;;;;;5150308;27;20106;-77
2023/08/13 01:33:35;;;;;;;10.70;3.05;;;;;;;;;;5153528;27;20726;-79
2023/08/13 01:36:04;;;;;;;8.40;2.72;;;;;;;;;;5154834;27;20022;-78
2023/08/13 01:38:31;;;;;;;11.80;2.90;;;;;;;;;;5153744;27;20023;-78
2023/08/13 01:40:57;;;;;;;8.13;2.47;;;;;;;;;;5154022;27;20053;-77
2023/08/13 01:43:23;;;;;;;12.95;2.85;;;;;;;;;;5154316;27;20043;-78
2023/08/13 01:45:49;;;;;;;13.15;2.63;;;;;;;;;;5154373;27;20026;-78
2023/08/13 01:48:15;;;;;;;8.48;2.80;;;;;;;;;;5154116;27;20039;-76
2023/08/13 01:50:41;;;;;;;11.68;2.92;;;;;;;;;;5154191;27;20033;-77
2023/08/13 01:53:07;;;;;;;9.85;2.53;;;;;;;;;;5157007;27;20101;-79
2023/08/13 01:55:34;;;;;;;11.85;3.10;;;;;;;;;;5154193;27;20122;-77
2023/08/13 01:58:00;;;;;;;13.43;3.17;;;;;;;;;;5154030;27;20058;-76
2023/08/13 02:00:26;;;;;;;11.35;3.70;;;;;;;;;;5154600;27;20054;-77
2023/08/13 02:02:52;;;;;;;8.93;2.67;;;;;;;;;;5153810;27;20057;-80
2023/08/13 02:05:18;;;;;;;9.18;2.30;;;;;;;;;;5154044;27;20065;-78
2023/08/13 02:07:45;;;;;;;12.10;3.53;;;;;;;;;;5153877;27;20471;-77
2023/08/13 02:10:11;;;;;;;9.80;3.25;;;;;;;;;;5154154;27;20023;-78
2023/08/13 02:12:37;;;;;;;6.07;2.55;;;;;;;;;;5153832;27;20038;-77
2023/08/13 02:15:03;;;;;;;10.57;2.85;;;;;;;;;;5152592;27;20079;-76
2023/08/13 02:17:29;;;;;;;10.68;3.03;;;;;;;;;;5153636;27;20026;-77
2023/08/13 02:19:55;;;;;;;9.73;3.17;;;;;;;;;;5153734;27;20071;-76
2023/08/13 02:22:21;;;;;;;11.30;2.28;;;;;;;;;;5153807;27;20476;-75
2023/08/13 02:24:47;;;;;;;9.90;3.03;;;;;;;;;;5154675;27;20023;-76
2023/08/13 02:27:13;;;;;;;10.02;2.90;;;;;;;;;;5153395;27;20023;-76
2023/08/13 02:29:39;;;;;;;6.90;2.38;;;;;;;;;;5153401;27;20031;-78
2023/08/13 02:32:05;;;;;;;9.18;2.50;;;;;;;;;;5153816;27;20023;-76
2023/08/13 02:34:33;;;;;;;10.20;2.88;;;;;;;;;;5154091;27;20027;-77
2023/08/13 02:36:59;;;;;;;7.53;2.20;;;;;;;;;;5153912;27;20063;-78
2023/08/13 02:39:25;;;;;;;9.00;2.95;;;;;;;;;;5155153;27;20027;-76
2023/08/13 02:41:51;;;;;;;8.60;2.38;;;;;;;;;;5157570;27;20051;-77
2023/08/13 02:44:17;;;;;;;11.68;3.63;;;;;;;;;;5152051;27;20155;-77
2023/08/13 02:46:43;;;;;;;6.32;2.38;;;;;;;;;;5154395;27;20031;-76
2023/08/13 02:49:09;;;;;;;7.60;2.20;;;;;;;;;;5154150;27;20392;-77
2023/08/13 02:51:35;;;;;;;12.73;3.13;;;;;;;;;;5153255;27;20034;-77
2023/08/13 02:54:01;;;;;;;13.57;3.10;;;;;;;;;;5153163;27;20047;-78
2023/08/13 02:56:27;;;;;;;12.07;3.55;;;;;;;;;;5152820;27;20023;-78
2023/08/13 02:58:53;;;;;;;9.93;2.92;;;;;;;;;;5154796;27;20023;-79
2023/08/13 03:01:19;;;;;;;6.82;2.20;;;;;;;;;;5154572;27;20027;-77
2023/08/13 03:03:48;;;;;;;7.80;2.50;;;;;;;;;;5157087;27;20034;-79
2023/08/13 03:06:14;;;;;;;8.23;2.93;;;;;;;;;;5156640;27;20023;-77
2023/08/13 03:08:40;;;;;;;9.43;2.55;;;;;;;;;;5153206;27;20049;-79
2023/08/13 03:11:06;;;;;;;10.05;2.72;;;;;;;;;;5153360;27;20539;-78
2023/08/13 03:13:32;;;;;;;12.68;3.40;;;;;;;;;;5152764;27;20068;-78
2023/08/13 03:15:58;;;;;;;10.75;2.80;;;;;;;;;;5150837;27;20018;-77
2023/08/13 03:18:25;;;;;;;14.45;2.97;;;;;;;;;;5152982;27;20034;-77
2023/08/13 03:20:51;;;;;;;9.30;2.33;;;;;;;;;;5152252;27;20102;-78
2023/08/13 03:23:17;;;;;;;9.77;2.67;;;;;;;;;;5152955;27;20041;-78
2023/08/13 03:25:43;;;;;;;12.40;3.15;;;;;;;;;;5153337;27;20100;-78
2023/08/13 03:28:09;;;;;;;9.13;2.60;;;;;;;;;;5155979;27;20055;-77
2023/08/13 03:30:35;;;;;;;8.30;2.65;;;;;;;;;;5153992;27;20041;-77
2023/08/13 03:33:00;;;;;;;12.55;3.05;;;;;;;;;;5152100;27;20067;-77
2023/08/13 03:35:26;;;;;;;7.22;3.17;;;;;;;;;;5152555;27;20030;-78
2023/08/13 03:37:52;;;;;;;13.32;3.58;;;;;;;;;;5153073;27;20026;-78
2023/08/13 03:40:18;;;;;;;11.95;2.65;;;;;;;;;;5152723;27;20159;-78
2023/08/13 03:42:44;;;;;;;8.40;2.35;;;;;;;;;;5151514;27;20038;-78
2023/08/13 03:45:10;;;;;;;8.70;2.33;;;;;;;;;;5151786;27;20023;-78
2023/08/13 03:47:37;;;;;;;11.27;3.08;;;;;;;;;;5151888;27;20037;-77
2023/08/13 03:50:03;;;;;;;10.60;2.80;;;;;;;;;;5150893;27;20019;-78
2023/08/13 03:52:29;;;;;;;12.65;3.15;;;;;;;;;;5152033;27;20026;-77
2023/08/13 03:54:55;;;;;;;11.95;3.15;;;;;;;;;;5150387;27;20026;-76
2023/08/13 03:57:21;;;;;;;12.18;2.85;;;;;;;;;;5151769;27;20056;-77
2023/08/13 03:59:47;;;;;;;9.82;2.55;;;;;;;;;;5150775;27;20027;-77
2023/08/13 04:02:13;;;;;;;14.95;2.78;;;;;;;;;;5151394;27;20042;-77
2023/08/13 04:04:39;;;;;;;6.75;2.38;;;;;;;;;;5151477;27;20026;-76
2023/08/13 04:07:05;;;;;;;11.80;2.67;;;;;;;;;;5151445;27;20055;-76
2023/08/13 04:09:31;;;;;;;12.18;3.35;;;;;;;;;;5150921;27;20021;-78
2023/08/13 04:11:57;;;;;;;14.82;3.33;;;;;;;;;;5151138;27;20019;-76
2023/08/13 04:14:23;;;;;;;11.85;3.08;;;;;;;;;;5150995;27;20071;-76
2023/08/13 04:16:49;;;;;;;11.90;2.92;;;;;;;;;;5151764;27;20058;-76
2023/08/13 04:19:15;;;;;;;9.52;2.78;;;;;;;;;;5152713;27;20030;-79
2023/08/13 04:21:41;;;;;;;10.13;2.70;;;;;;;;;;5151195;27;20357;-76
2023/08/13 04:24:07;;;;;;;11.30;2.65;;;;;;;;;;5150939;27;20060;-78
2023/08/13 04:26:33;;;;;;;7.25;2.42;;;;;;;;;;5151588;27;20067;-76
2023/08/13 04:28:59;;;;;;;10.05;2.70;;;;;;;;;;5151775;27;20030;-78
2023/08/13 04:31:25;;;;;;;10.68;2.25;;;;;;;;;;5151025;27;20361;-78
2023/08/13 04:33:51;;;;;;;8.95;2.78;;;;;;;;;;5150833;27;20035;-78
2023/08/13 04:36:17;;;;;;;11.93;3.13;;;;;;;;;;5150765;27;20023;-79
2023/08/13 04:38:43;;;;;;;11.40;4.03;;;;;;;;;;5150494;27;20022;-79
2023/08/13 04:41:09;;;;;;;9.55;3.30;;;;;;;;;;5150877;27;20073;-76
2023/08/13 04:43:35;;;;;;;11.38;2.92;;;;;;;;;;5150529;27;20104;-78
2023/08/13 04:46:01;;;;;;;10.07;3.22;;;;;;;;;;5150852;27;20131;-79
2023/08/13 04:48:44;;;;;;;10.45;2.38;;;;;;;;;;5150619;27;20033;-77
2023/08/13 04:51:10;;;;;;;13.88;3.42;;;;;;;;;;5150282;27;20027;-78
2023/08/13 04:53:36;;;;;;;15.63;3.50;;;;;;;;;;5150473;27;20083;-78
2023/08/13 04:56:02;;;;;;;13.80;3.20;;;;;;;;;;5151119;27;20030;-78
2023/08/13 04:58:28;;;;;;;9.85;2.42;;;;;;;;;;5150786;27;20038;-78
2023/08/13 05:00:54;;;;;;;11.00;2.90;;;;;;;;;;5150650;27;20633;-79
2023/08/13 05:03:20;;;;;;;12.50;2.92;;;;;;;;;;5149964;27;20121;-78
2023/08/13 05:05:46;;;;;;;9.13;3.03;;;;;;;;;;5151758;27;20082;-78
2023/08/13 05:08:12;;;;;;;12.77;2.65;;;;;;;;;;5150179;27;20031;-78
2023/08/13 05:10:37;;;;;;;9.75;2.88;;;;;;;;;;5150337;27;20026;-78
2023/08/13 05:13:04;;;;;;;11.32;3.20;;;;;;;;;;5150657;27;20035;-78
2023/08/13 05:15:29;;;;;;;11.77;3.05;;;;;;;;;;5149286;27;20113;-77
2023/08/13 05:17:57;;;;;;;9.48;2.30;;;;;;;;;;5150070;27;20171;-77
2023/08/13 05:20:23;;;;;;;10.00;2.92;;;;;;;;;;5150492;27;20070;-78
2023/08/13 05:22:49;;;;;;;10.18;2.85;;;;;;;;;;5150600;27;20034;-79
2023/08/13 05:25:15;;;;;;;11.60;3.38;;;;;;;;;;5150528;27;20019;-78
2023/08/13 05:27:41;;;;;;;10.32;2.90;;;;;;;;;;5150988;27;20038;-79
2023/08/13 05:30:10;;;;;;;9.27;2.97;;;;;;;;;;5151194;27;20034;-78
2023/08/13 05:32:35;;;;;;;16.45;3.28;;;;;;;;;;5152811;27;20019;-78
2023/08/13 05:35:02;;;;;;;8.60;2.70;;;;;;;;;;5151905;27;20499;-78
2023/08/13 05:37:28;;;;;;;11.63;3.08;;;;;;;;;;5151115;27;20079;-77
2023/08/13 05:39:54;;;;;;;11.48;2.80;;;;;;;;;;5151469;27;20366;-77
2023/08/13 05:42:20;;;;;;;11.80;2.65;;;;;;;;;;5149510;27;20087;-77
2023/08/13 05:44:46;;;;;;;10.23;2.92;;;;;;;;;;5151024;27;20492;-77
2023/08/13 05:47:12;;;;;;;19.65;3.00;;;;;;;;;;5149776;27;20027;-76
2023/08/13 05:49:38;;;;;;;11.73;3.35;;;;;;;;;;5150795;27;20022;-77
2023/08/13 05:52:04;;;;;;;5.95;2.58;;;;;;;;;;5151338;27;20777;-76
2023/08/13 05:54:30;;;;;;;10.93;2.70;;;;;;;;;;5152226;27;20403;-77
2023/08/13 05:56:56;;;;;;;14.05;3.75;;;;;;;;;;5149917;27;20105;-78
2023/08/13 05:59:22;;;;;;;12.43;3.97;;;;;;;;;;5150799;27;20023;-76
2023/08/13 06:01:48;;;;;;;10.65;2.72;;;;;;;;;;5150447;27;20384;-78
2023/08/13 06:04:14;;;;;;;9.43;2.60;;;;;;;;;;5150105;27;20031;-77
2023/08/13 06:06:40;;;;;;;8.77;2.65;;;;;;;;;;5150019;27;20027;-77
2023/08/13 06:09:07;;;;;;;8.30;2.13;;;;;;;;;;5150670;27;20057;-77
2023/08/13 06:11:34;;;;;;;11.32;2.40;;;;;;;;;;5150559;27;20026;-78
2023/08/13 06:14:00;;;;;;;15.55;3.90;;;;;;;;;;5150069;27;20023;-77
2023/08/13 06:16:26;;;;;;;13.48;3.28;;;;;;;;;;5150072;27;20075;-76
2023/08/13 06:18:52;;;;;;;13.30;3.00;;;;;;;;;;5149747;27;20033;-76
2023/08/13 06:21:18;;;;;;;13.68;3.58;;;;;;;;;;5153531;27;20030;-77
2023/08/13 06:23:44;;;;;;;10.73;3.05;;;;;;;;;;5152661;27;20041;-77
2023/08/13 06:26:10;;;;;;;11.77;2.83;;;;;;;;;;5153609;27;20117;-77
2023/08/13 06:28:37;;;;;;;11.40;3.42;;;;;;;;;;5153240;27;20106;-78
2023/08/13 06:31:03;;;;;;;9.10;2.70;;;;;;;;;;5152104;27;20022;-78
2023/08/13 06:33:29;;;;;;;14.50;3.25;;;;;;;;;;5153672;27;20099;-78
2023/08/13 06:35:55;;;;;;;14.27;3.95;;;;;;;;;;5153888;27;20362;-78
2023/08/13 06:38:26;;;;;;;10.23;2.60;;;;;;;;;;5153355;27;20388;-74
2023/08/13 06:40:51;;;;;;;;;;;;;;;;;;5152303;27;20183;-77
2023/08/13 06:43:18;;;;;;;8.85;2.33;;;;;;;;;;5152460;27;20026;-76
2023/08/13 06:45:46;;;;;;;13.13;2.50;;;;;;;;;;5151484;27;20057;-74
2023/08/13 06:48:12;;;;;;;8.40;2.10;;;;;;;;;;5151609;27;20392;-75
2023/08/13 06:50:38;;;;;;;11.18;2.42;;;;;;;;;;5151179;27;20027;-74
2023/08/13 06:53:04;;;;;;;13.02;3.17;;;;;;;;;;5152222;27;20026;-76
2023/08/13 06:55:30;;;;;;;9.25;2.47;;;;;;;;;;5153363;27;20023;-75
2023/08/13 06:57:56;;;;;;;10.85;2.15;;;;;;;;;;5152699;27;20031;-77
2023/08/13 07:00:22;;;;;;;8.15;2.40;;;;;;;;;;5152819;27;20018;-72
2023/08/13 07:02:50;;;;;;;7.28;1.80;;;;;;;;;;5153113;27;20030;-75
2023/08/13 07:05:17;;;;;;;7.07;2.70;;;;;;;;;;5152853;27;20106;-74
2023/08/13 07:07:43;;;;;;;11.38;3.08;;;;;;;;;;5153179;27;20030;-75
2023/08/13 07:10:09;;;;;;;12.45;3.00;;;;;;;;;;5152997;27;20087;-75
2023/08/13 07:12:35;;;;;;;12.57;2.72;;;;;;;;;;5152939;27;20030;-75
2023/08/13 07:15:03;;;;;;;7.55;1.70;;;;;;;;;;5152777;27;20027;-74
2023/08/13 07:17:30;;;;;;;8.45;2.50;;;;;;;;;;5153215;27;20829;-76
2023/08/13 07:19:56;;;;;;;10.13;2.22;;;;;;;;;;5152676;27;20019;-74
2023/08/13 07:22:22;;;;;;;8.90;2.30;;;;;;;;;;5152232;27;20075;-76
2023/08/13 07:24:48;;;;;;;9.55;2.38;;;;;;;;;;5155474;27;20019;-76
2023/08/13 07:27:14;;;;;;;8.55;1.92;;;;;;;;;;5152821;27;20027;-78
2023/08/13 07:29:40;;;;;;;15.40;3.63;;;;;;;;;;5153233;27;20022;-74
2023/08/13 07:32:06;;;;;;;12.98;3.40;;;;;;;;;;5152204;27;20034;-78
2023/08/13 07:34:32;;;;;;;14.93;3.03;;;;;;;;;;5153233;27;20027;-73
2023/08/13 07:36:58;;;;;;;16.50;2.55;;;;;;;;;;5152883;27;20033;-78
2023/08/13 07:39:24;;;;;;;6.93;2.05;;;;;;;;;;5152501;27;20046;-74
2023/08/13 07:41:50;;;;;;;8.00;2.30;;;;;;;;;;5151589;27;20077;-76
2023/08/13 07:44:16;;;;;;;17.50;3.53;;;;;;;;;;5150560;27;20126;-77
2023/08/13 07:46:44;;;;;;;7.30;2.00;;;;;;;;;;5152887;27;20423;-79
2023/08/13 07:49:09;;;;;;;5.95;2.38;;;;;;;;;;5152900;27;20026;-83
2023/08/13 07:51:36;;;;;;;10.38;2.10;;;;;;;;;;5152534;27;20027;-73
2023/08/13 07:54:02;;;;;;;7.75;2.20;;;;;;;;;;5152168;27;20054;-76
2023/08/13 07:56:28;;;;;;;9.88;2.58;;;;;;;;;;5151631;27;20023;-75
2023/08/13 07:58:54;;;;;;;14.25;2.03;;;;;;;;;;5152255;27;20029;-77
2023/08/13 08:01:20;;;;;;;6.70;1.80;;;;;;;;;;5152089;27;20527;-75
2023/08/13 08:03:46;;;;;;;9.55;2.60;;;;;;;;;;5151239;27;20100;-76
2023/08/13 08:06:12;;;;;;;4.10;1.45;;;;;;;;;;5151560;27;20417;-76
2023/08/13 08:08:38;;;;;;;9.13;2.08;;;;;;;;;;5151729;27;20075;-76
2023/08/13 08:11:06;;;;;;;5.20;1.80;;;;;;;;;;5152933;27;20025;-76
2023/08/13 08:13:32;;;;;;;8.02;1.90;;;;;;;;;;5152748;27;20079;-76
2023/08/13 08:15:58;;;;;;;10.90;2.40;;;;;;;;;;5153053;27;20023;-77
2023/08/13 08:18:24;;;;;;;7.63;1.52;;;;;;;;;;5154641;27;20023;-76
2023/08/13 08:20:50;;;;;;;14.93;3.20;;;;;;;;;;5151933;27;20019;-71
2023/08/13 08:23:16;;;;;;;25.83;3.15;;;;;;;;;;5152614;27;20041;-72
2023/08/13 08:25:44;;;;;;;7.72;1.70;;;;;;;;;;5151950;27;20028;-76
2023/08/13 08:28:10;;;;;;;8.55;2.00;;;;;;;;;;5151841;27;20087;-74
2023/08/13 08:30:36;;;;;;;7.88;2.40;;;;;;;;;;5150328;27;20058;-77
2023/08/13 08:33:02;;;;;;;47.75;6.97;;;;;;;;;;5152179;27;20392;-75
2023/08/13 08:35:28;;;;;;;10.23;2.15;;;;;;;;;;5150965;27;20508;-74
2023/08/13 08:37:54;;;;;;;18.92;2.63;;;;;;;;;;5151832;27;20027;-76
2023/08/13 08:43:04;;;;;;;18.77;3.28;;;;;;;;;;5018740;28;1903621;-68
2023/08/13 08:45:30;;;;;;;23.48;2.97;;;;;;;;;;5086205;28;20028;-67
2023/08/13 08:47:57;;;;;;;15.30;3.33;;;;;;;;;;5086387;28;20583;-68
2023/08/13 08:50:23;;;;;;;26.35;4.47;;;;;;;;;;5086544;28;20104;-69
2023/08/13 08:52:49;;;;;;;15.77;2.92;;;;;;;;;;5086092;28;20098;-69
2023/08/13 08:55:17;;;;;;;41.70;3.92;;;;;;;;;;5086413;28;20016;-71
2023/08/13 08:57:43;;;;;;;29.58;3.58;;;;;;;;;;5086558;28;20107;-70
2023/08/13 09:00:09;;;;;;;41.80;4.05;;;;;;;;;;5085726;28;20114;-72
2023/08/13 09:02:38;;;;;;;34.83;3.85;;;;;;;;;;5085809;28;20047;-68
2023/08/13 09:05:04;;;;;;;20.58;3.05;;;;;;;;;;5086184;28;20059;-69
2023/08/13 09:07:31;;;;;;;28.65;3.13;;;;;;;;;;5070823;28;20443;-70
2023/08/13 09:09:57;;;;;;;19.85;3.03;;;;;;;;;;5065592;28;20061;-68
2023/08/13 09:12:23;;;;;;;20.70;2.88;;;;;;;;;;5065645;28;20020;-65
2023/08/13 09:14:53;;;;;;;15.70;2.40;;;;;;;;;;5065908;28;20486;-68
2023/08/13 09:17:22;;;;;;;14.32;2.00;;;;;;;;;;5065546;28;20138;-68
2023/08/13 09:19:49;;;;;;;13.82;2.75;;;;;;;;;;5066205;28;20032;-68
2023/08/13 09:22:16;;;;;;;21.52;2.85;;;;;;;;;;5065729;28;20043;-66
2023/08/13 09:24:42;;;;;;;16.25;2.55;;;;;;;;;;5065272;28;20052;-66
2023/08/13 09:27:08;;;;;;;12.80;2.30;;;;;;;;;;5065878;28;20028;-65
2023/08/13 09:29:38;;;;;;;15.30;2.05;;;;;;;;;;5065524;28;20063;-67
2023/08/13 09:32:04;;;;;;;15.07;3.30;;;;;;;;;;5065300;28;20032;-67
2023/08/13 09:34:31;;;;;;;14.65;2.53;;;;;;;;;;5065222;28;20029;-67
2023/08/13 09:36:57;;;;;;;13.05;2.58;;;;;;;;;;5065339;28;20052;-67
2023/08/13 09:39:27;;;;;;;12.45;2.60;;;;;;;;;;5065009;28;20056;-67
2023/08/13 09:41:53;;;;;;;11.93;2.55;;;;;;;;;;5065251;28;20059;-67
2023/08/13 09:44:24;;;;;;;16.98;2.45;;;;;;;;;;5065472;28;20083;-68
2023/08/13 09:46:54;;;;;;;14.55;2.63;;;;;;;;;;5065109;28;20025;-67
2023/08/13 09:49:22;;;;;;;9.93;2.15;;;;;;;;;;5064938;28;20028;-67
2023/08/13 09:51:49;;;;;;;22.05;2.50;;;;;;;;;;5065227;28;20024;-67
2023/08/13 09:54:23;;;;;;;12.98;2.20;;;;;;;;;;5052798;28;20101;-67
2023/08/13 09:56:53;;;;;;;12.95;1.75;;;;;;;;;;5051699;28;20081;-67
2023/08/13 09:59:19;;;;;;;13.88;2.63;;;;;;;;;;5051450;28;20029;-66
2023/08/13 10:01:46;;;;;;;11.95;2.58;;;;;;;;;;5051547;28;20037;-67
2023/08/13 10:04:12;;;;;;;9.27;1.80;;;;;;;;;;5051920;28;20095;-66
2023/08/13 10:06:39;;;;;;;12.48;2.60;;;;;;;;;;5051769;28;20032;-66
2023/08/13 10:09:06;;;;;;;12.48;1.92;;;;;;;;;;5051335;28;20062;-66
2023/08/13 10:11:32;;;;;;;6.82;1.35;;;;;;;;;;5052045;28;20048;-66
2023/08/13 10:13:58;;;;;;;9.77;1.92;;;;;;;;;;5051728;28;20029;-66
2023/08/13 10:16:24;;;;;;;8.60;2.00;;;;;;;;;;5051333;28;20049;-66
2023/08/13 10:18:51;;;;;;;8.27;2.00;;;;;;;;;;5051088;28;20029;-67
2023/08/13 10:21:32;;;;;;;9.15;1.88;;;;;;;;;;5051171;28;20107;-67
2023/08/13 10:24:00;;;;;;;12.20;2.35;;;;;;;;;;5051996;28;20037;-68
2023/08/13 10:26:28;;;;;;;11.23;2.53;;;;;;;;;;5051865;28;20475;-68
2023/08/13 10:28:54;;;;;;;11.25;2.00;;;;;;;;;;5051328;28;20036;-68
2023/08/13 10:31:23;;;;;;;8.77;1.95;;;;;;;;;;5051156;28;20025;-68
2023/08/13 10:34:09;;;;;;;6.37;1.60;;;;;;;;;;5032851;28;20060;-68
2023/08/13 10:36:52;;;;;;;10.65;2.00;;;;;;;;;;5051389;28;20028;-67
2023/08/13 10:39:32;;;;;;;5.45;1.83;;;;;;;;;;5051606;28;20151;-66
2023/08/13 10:41:58;;;;;;;8.48;2.28;;;;;;;;;;5050866;28;20064;-67
2023/08/13 10:44:30;;;;;;;7.90;1.60;;;;;;;;;;5051251;28;20029;-67
2023/08/13 10:46:57;;;;;;;6.55;1.80;;;;;;;;;;5050132;28;20025;-67
2023/08/13 10:49:24;;;;;;;7.57;1.63;;;;;;;;;;5050768;28;20020;-67
2023/08/13 10:51:51;;;;;;;6.82;1.73;;;;;;;;;;5051408;28;20029;-67
2023/08/13 10:54:17;;;;;;;7.80;1.45;;;;;;;;;;5050306;28;20025;-67
2023/08/13 10:56:47;;;;;;;8.57;2.03;;;;;;;;;;5051012;28;20467;-67
2023/08/13 10:59:13;;;;;;;7.63;1.83;;;;;;;;;;5050448;28;20017;-67
2023/08/13 11:01:57;;;;;;;9.43;1.88;;;;;;;;;;5050678;28;20120;-66
2023/08/13 11:04:23;;;;;;;7.05;1.50;;;;;;;;;;5050291;28;20025;-67
2023/08/13 11:06:50;;;;;;;12.15;1.80;;;;;;;;;;5050169;28;20071;-67
2023/08/13 11:09:17;;;;;;;7.05;1.63;;;;;;;;;;5049696;28;20032;-67
2023/08/13 11:11:44;;;;;;;9.32;2.00;;;;;;;;;;5050128;28;20091;-66
2023/08/13 11:14:10;;;;;;;8.20;2.60;;;;;;;;;;5050692;28;20055;-66
2023/08/13 11:16:36;;;;;;;8.10;2.22;;;;;;;;;;5050114;28;20075;-66
2023/08/13 11:19:04;;;;;;;8.57;2.17;;;;;;;;;;5050146;28;20058;-67
2023/08/13 11:21:30;;;;;;;11.55;1.98;;;;;;;;;;5050387;28;20029;-67
2023/08/13 11:23:56;;;;;;;8.95;1.70;;;;;;;;;;5049802;28;20399;-68
2023/08/13 11:26:22;;;;;;;12.55;2.20;;;;;;;;;;5050359;28;20048;-67
2023/08/13 11:28:50;;;;;;;10.60;2.60;;;;;;;;;;5048221;28;20036;-67
2023/08/13 11:31:16;;;;;;;10.25;2.42;;;;;;;;;;5048227;28;20383;-67
2023/08/13 11:33:43;;;;;;;10.70;2.80;;;;;;;;;;5047987;28;20108;-69
2023/08/13 11:36:10;;;;;;;9.75;2.22;;;;;;;;;;5048594;28;20033;-69
2023/08/13 11:38:36;;;;;;;12.43;2.75;;;;;;;;;;5047714;28;20118;-69
2023/08/13 11:41:11;;;;;;;9.07;2.72;;;;;;;;;;5048027;28;20047;-69
2023/08/13 11:43:37;;;;;;;10.32;2.70;;;;;;;;;;5049406;28;20093;-69
2023/08/13 11:46:03;;;;;;;8.95;2.00;;;;;;;;;;5049600;28;20048;-68
2023/08/13 11:48:31;;;;;;;5.60;2.35;;;;;;;;;;5048946;28;20040;-69
2023/08/13 11:51:10;;;;;;;8.80;2.83;;;;;;;;;;5047285;28;20025;-69
2023/08/13 11:53:43;;;;;;;7.60;2.10;;;;;;;;;;5047854;28;20029;-69
2023/08/13 11:56:10;;;;;;;7.78;1.73;;;;;;;;;;5047437;28;20661;-69
2023/08/13 11:58:37;;;;;;;6.82;2.13;;;;;;;;;;5047192;28;20033;-69
2023/08/13 12:01:03;;;;;;;10.15;2.30;;;;;;;;;;5047539;28;20024;-69
2023/08/13 12:03:37;;;;;;;11.05;2.88;;;;;;;;;;5047902;28;20037;-69
2023/08/13 12:06:05;;;;;;;11.57;2.03;;;;;;;;;;5048577;28;20554;-69
2023/08/13 12:08:31;;;;;;;7.25;2.03;;;;;;;;;;5031512;28;20032;-69
2023/08/13 12:10:57;;;;;;;7.57;1.80;;;;;;;;;;5049022;28;20033;-69
2023/08/13 12:13:28;;;;;;;10.68;2.15;;;;;;;;;;5031557;28;20028;-69
2023/08/13 12:15:54;;;;;;;7.28;1.92;;;;;;;;;;5049040;28;20495;-68
2023/08/13 12:18:20;;;;;;;8.10;1.90;;;;;;;;;;5048994;28;20025;-69
2023/08/13 12:20:46;;;;;;;12.15;1.77;;;;;;;;;;5048762;28;20087;-69
2023/08/13 12:23:12;;;;;;;11.98;2.05;;;;;;;;;;5049229;28;20471;-69
2023/08/13 12:25:38;;;;;;;8.88;1.85;;;;;;;;;;5049076;28;20052;-69
2023/08/13 12:28:05;;;;;;;16.67;3.00;;;;;;;;;;5048923;28;20039;-69
2023/08/13 12:30:31;;;;;;;9.00;1.85;;;;;;;;;;5048673;28;20025;-69
2023/08/13 12:32:57;;;;;;;8.18;1.83;;;;;;;;;;5049170;28;20025;-69
2023/08/13 12:35:23;;;;;;;9.20;2.38;;;;;;;;;;5048756;28;20376;-70
2023/08/13 12:37:49;;;;;;;7.68;2.20;;;;;;;;;;5048764;28;20071;-69
2023/08/13 12:40:18;;;;;;;7.03;2.15;;;;;;;;;;5048047;28;20075;-69
2023/08/13 12:42:45;;;;;;;9.85;2.60;;;;;;;;;;5047091;28;20360;-69
2023/08/13 12:45:11;;;;;;;7.78;2.35;;;;;;;;;;5047233;28;20021;-69
2023/08/13 12:47:38;;;;;;;5.80;1.88;;;;;;;;;;5047946;28;20025;-69
2023/08/13 12:50:05;;;;;;;9.15;1.95;;;;;;;;;;5047692;28;20044;-69
2023/08/13 12:52:31;;;;;;;7.13;2.33;;;;;;;;;;5047394;28;20021;-69
2023/08/13 12:54:57;;;;;;;8.63;1.85;;;;;;;;;;5047446;28;20040;-69
2023/08/13 12:57:23;;;;;;;14.93;2.90;;;;;;;;;;5046334;28;20079;-70
2023/08/13 12:59:49;;;;;;;6.80;2.00;;;;;;;;;;5046872;28;20056;-70
2023/08/13 13:02:15;;;;;;;5.47;1.77;;;;;;;;;;5047611;28;20069;-70
2023/08/13 13:04:42;;;;;;;9.15;2.08;;;;;;;;;;5046724;28;20442;-70
2023/08/13 13:07:08;;;;;;;8.07;1.92;;;;;;;;;;5046851;28;20072;-70
2023/08/13 13:09:34;;;;;;;7.63;2.55;;;;;;;;;;5047632;28;20025;-70
2023/08/13 13:12:00;;;;;;;6.80;1.60;;;;;;;;;;5048601;28;20037;-69
2023/08/13 13:14:26;;;;;;;11.52;2.33;;;;;;;;;;5048738;28;20029;-69
2023/08/13 13:16:52;;;;;;;7.03;1.98;;;;;;;;;;5048021;28;20060;-68
2023/08/13 13:19:18;;;;;;;10.52;2.38;;;;;;;;;;5048140;28;20115;-69
2023/08/13 13:21:44;;;;;;;9.32;2.47;;;;;;;;;;5048677;28;20084;-69
2023/08/13 13:24:10;;;;;;;10.50;1.92;;;;;;;;;;5048160;28;20040;-69
2023/08/13 13:26:36;;;;;;;8.25;1.98;;;;;;;;;;5048532;28;20025;-69
2023/08/13 13:29:03;;;;;;;7.13;1.80;;;;;;;;;;5050283;28;20021;-69
2023/08/13 13:31:29;;;;;;;7.47;1.95;;;;;;;;;;5052403;28;20036;-69
2023/08/13 13:33:55;;;;;;;9.23;1.80;;;;;;;;;;5052158;28;20494;-69
2023/08/13 13:36:21;;;;;;;9.27;2.35;;;;;;;;;;5052157;28;20807;-69
2023/08/13 13:38:47;;;;;;;8.05;2.10;;;;;;;;;;5051777;28;20033;-69
2023/08/13 13:41:13;;;;;;;7.15;2.15;;;;;;;;;;5051941;28;20083;-69
2023/08/13 13:43:40;;;;;;;8.35;2.33;;;;;;;;;;5051757;28;20033;-69
2023/08/13 13:46:06;;;;;;;6.68;1.67;;;;;;;;;;5051771;28;20021;-68
2023/08/13 13:48:32;;;;;;;8.25;2.38;;;;;;;;;;5052235;28;20028;-69
2023/08/13 13:50:58;;;;;;;7.75;2.22;;;;;;;;;;5051854;28;20032;-69
2023/08/13 13:53:24;;;;;;;10.60;2.67;;;;;;;;;;5052044;28;20029;-68
2023/08/13 13:55:50;;;;;;;9.52;2.67;;;;;;;;;;5052134;28;20055;-69
2023/08/13 13:58:16;;;;;;;6.47;1.77;;;;;;;;;;5051627;28;20475;-69
2023/08/13 14:00:43;;;;;;;6.65;2.25;;;;;;;;;;5051699;28;20025;-69
2023/08/13 14:03:09;;;;;;;12.65;3.13;;;;;;;;;;5051855;28;20040;-69
2023/08/13 14:05:35;;;;;;;7.78;1.90;;;;;;;;;;5051547;28;20047;-69
2023/08/13 14:08:01;;;;;;;9.23;2.55;;;;;;;;;;5050242;28;20032;-69
2023/08/13 14:10:27;;;;;;;8.43;2.42;;;;;;;;;;5051523;28;20133;-70
2023/08/13 14:12:53;;;;;;;6.80;1.63;;;;;;;;;;5051563;28;20132;-69
2023/08/13 14:15:19;;;;;;;9.82;2.40;;;;;;;;;;5051296;28;20017;-71
2023/08/13 14:17:45;;;;;;;7.30;2.08;;;;;;;;;;5051157;28;20407;-71
2023/08/13 14:20:12;;;;;;;9.13;2.75;;;;;;;;;;5050698;28;20054;-70
2023/08/13 14:22:38;;;;;;;10.15;2.22;;;;;;;;;;5051088;28;20025;-71
2023/08/13 14:25:05;;;;;;;8.50;2.00;;;;;;;;;;5050512;28;20146;-69
2023/08/13 14:27:31;;;;;;;11.88;2.40;;;;;;;;;;5051353;28;20494;-68
2023/08/13 14:29:57;;;;;;;11.68;2.50;;;;;;;;;;5050628;28;20033;-69
2023/08/13 14:32:23;;;;;;;6.90;1.88;;;;;;;;;;5051097;28;20185;-68
2023/08/13 14:34:50;;;;;;;5.63;2.08;;;;;;;;;;5050924;28;20032;-71